Time;durP1;ratioP1;P1;durP2;ratioP2;P2;SDS_P1;SDS_P2;PMS_P1;PMS_P2;Temp;Humidity;BMP_temperature;BMP_pressure;BME280_temperature;BME280_humidity;BME280_pressure;Samples;Min_cycle;Max_cycle;Signal;HPM_P1;HPM_P2
2024/02/05 00:00:11;;;;;;;1.58;1.48;;;;;;;4.52;100.00;98155.66;5039647;28;20768;-80
2024/02/05 00:02:40;;;;;;;1.75;1.60;;;;;;;4.62;100.00;98153.50;5035566;28;20457;-79
2024/02/05 00:05:07;;;;;;;1.58;1.48;;;;;;;4.69;100.00;98156.97;5034324;28;20903;-78
2024/02/05 00:07:33;;;;;;;1.30;1.20;;;;;;;4.70;100.00;98163.03;5036455;28;20490;-80
2024/02/05 00:10:00;;;;;;;1.40;1.30;;;;;;;4.71;100.00;98151.53;5038615;28;20435;-80
2024/02/05 00:12:26;;;;;;;1.50;1.40;;;;;;;4.73;100.00;98144.28;5037805;28;20411;-77
2024/02/05 00:14:52;;;;;;;1.30;1.30;;;;;;;4.72;100.00;98156.59;5037511;28;20419;-78
2024/02/05 00:17:18;;;;;;;1.38;1.27;;;;;;;4.70;100.00;98155.16;5038021;28;20395;-79
2024/02/05 00:19:45;;;;;;;1.15;1.13;;;;;;;4.73;100.00;98158.22;5038675;28;20399;-79
2024/02/05 00:22:12;;;;;;;1.40;1.30;;;;;;;4.78;100.00;98153.19;5038144;28;20403;-79
2024/02/05 00:24:38;;;;;;;1.40;1.30;;;;;;;4.84;100.00;98155.03;5036735;28;20406;-80
2024/02/05 00:27:05;;;;;;;1.30;1.30;;;;;;;4.92;100.00;98154.03;5037402;28;20406;-80
2024/02/05 00:29:31;;;;;;;1.63;1.20;;;;;;;4.98;100.00;98148.81;5036737;28;20425;-80
2024/02/05 00:31:57;;;;;;;1.20;1.20;;;;;;;5.03;100.00;98153.50;5038054;28;20405;-79
2024/02/05 00:34:23;;;;;;;1.17;1.17;;;;;;;5.15;100.00;98140.59;5039252;28;20415;-80
2024/02/05 00:36:51;;;;;;;1.40;1.30;;;;;;;5.21;100.00;98145.88;5038628;28;20521;-79
2024/02/05 00:39:18;;;;;;;1.40;1.30;;;;;;;5.21;100.00;98135.38;5038590;28;20547;-79
2024/02/05 00:41:44;;;;;;;1.23;1.20;;;;;;;5.29;100.00;98142.25;5038058;28;20399;-80
2024/02/05 00:44:10;;;;;;;1.20;1.20;;;;;;;5.31;100.00;98142.88;5038713;28;20458;-80
2024/02/05 00:46:36;;;;;;;1.20;1.20;;;;;;;5.28;100.00;98135.38;5038582;28;21012;-80
2024/02/05 00:49:04;;;;;;;1.30;1.20;;;;;;;5.30;100.00;98141.25;5038899;28;20395;-79
2024/02/05 00:51:30;;;;;;;1.10;1.10;;;;;;;5.36;100.00;98150.94;5040026;28;20395;-80
2024/02/05 00:53:58;;;;;;;1.10;1.10;;;;;;;5.41;100.00;98157.22;5040344;28;20914;-78
2024/02/05 00:56:25;;;;;;;1.48;1.30;;;;;;;5.43;100.00;98157.81;5040123;28;20399;-79
2024/02/05 00:58:51;;;;;;;1.20;1.20;;;;;;;5.44;100.00;98166.50;5044100;28;20478;-79
2024/02/05 01:01:17;;;;;;;1.10;1.10;;;;;;;5.45;100.00;98173.38;5044894;28;20403;-79
2024/02/05 01:03:43;;;;;;;1.30;1.30;;;;;;;5.45;100.00;98181.25;5038099;28;20403;-80
2024/02/05 01:06:10;;;;;;;1.25;1.23;;;;;;;5.56;100.00;98179.88;5038084;28;20396;-79
2024/02/05 01:08:36;;;;;;;1.40;1.30;;;;;;;5.67;100.00;98193.22;5038289;28;20391;-80
2024/02/05 01:11:04;;;;;;;1.48;1.38;;;;;;;5.76;100.00;98183.34;5038782;28;20403;-79
2024/02/05 01:13:32;;;;;;;2.10;1.40;;;;;;;5.81;100.00;98173.84;5037521;28;20929;-78
2024/02/05 01:15:59;;;;;;;1.10;1.10;;;;;;;5.90;100.00;98181.56;5036927;28;20399;-79
2024/02/05 01:18:25;;;;;;;1.50;1.40;;;;;;;5.96;100.00;98186.00;5036434;28;20599;-80
2024/02/05 01:20:51;;;;;;;1.30;1.20;;;;;;;5.99;100.00;98189.06;5034112;28;20411;-78
2024/02/05 01:23:18;;;;;;;1.43;1.33;;;;;;;6.05;100.00;98190.06;5035858;28;20753;-79
2024/02/05 01:25:44;;;;;;;1.40;1.30;;;;;;;6.07;100.00;98199.38;5035882;28;20403;-77
2024/02/05 01:28:11;;;;;;;1.37;1.27;;;;;;;6.08;100.00;98189.66;5036011;28;20760;-80
2024/02/05 01:30:37;;;;;;;1.30;1.20;;;;;;;6.09;100.00;98196.53;5036990;28;20407;-79
2024/02/05 01:33:04;;;;;;;1.38;1.30;;;;;;;6.06;100.00;98195.13;5036600;28;20391;-78
2024/02/05 01:35:30;;;;;;;1.33;1.23;;;;;;;6.10;100.00;98198.94;5036372;28;20468;-79
2024/02/05 01:37:57;;;;;;;1.20;1.20;;;;;;;6.12;100.00;98207.44;5036353;28;20395;-78
2024/02/05 01:40:23;;;;;;;2.25;1.50;;;;;;;6.12;100.00;98204.00;5034858;28;20784;-79
2024/02/05 01:42:49;;;;;;;1.55;1.45;;;;;;;6.16;100.00;98210.50;5037548;28;20422;-79
2024/02/05 01:45:16;;;;;;;2.28;1.60;;;;;;;6.16;100.00;98215.75;5037791;28;20485;-80
2024/02/05 01:47:43;;;;;;;1.50;1.40;;;;;;;6.18;100.00;98218.97;5038136;28;20458;-80
2024/02/05 01:50:12;;;;;;;2.30;1.60;;;;;;;6.15;100.00;98214.94;5036839;28;20403;-79
2024/02/05 01:52:44;;;;;;;1.50;1.40;;;;;;;6.14;100.00;98209.88;5036426;28;20815;-80
2024/02/05 01:55:12;;;;;;;3.33;1.50;;;;;;;6.16;100.00;98213.91;5037351;28;20418;-79
2024/02/05 01:57:39;;;;;;;2.30;1.77;;;;;;;6.13;100.00;98210.88;5038183;28;20463;-79
2024/02/05 02:00:06;;;;;;;2.50;1.60;;;;;;;6.16;100.00;98213.13;5038661;28;20502;-79
2024/02/05 02:02:34;;;;;;;3.70;1.87;;;;;;;6.20;100.00;98198.53;5037745;28;20531;-79
2024/02/05 02:05:00;;;;;;;2.03;1.63;;;;;;;6.16;100.00;98223.63;5037327;28;20418;-79
2024/02/05 02:07:27;;;;;;;2.20;1.70;;;;;;;6.15;100.00;98209.69;5037864;28;20445;-80
2024/02/05 02:09:53;;;;;;;2.20;1.60;;;;;;;6.16;100.00;98216.53;5042528;28;20395;-80
2024/02/05 02:12:20;;;;;;;2.08;1.60;;;;;;;6.13;100.00;98216.94;5037137;28;20398;-80
2024/02/05 02:14:47;;;;;;;2.88;1.60;;;;;;;6.09;100.00;98205.19;5037730;28;20461;-80
2024/02/05 02:17:13;;;;;;;3.28;1.60;;;;;;;6.08;100.00;98208.06;5038205;28;20434;-79
2024/02/05 02:19:46;;;;;;;1.75;1.60;;;;;;;6.12;100.00;98204.00;5045268;28;20429;-79
2024/02/05 02:22:20;;;;;;;2.63;1.70;;;;;;;6.06;100.00;98210.06;5048129;28;20414;-79
2024/02/05 02:24:48;;;;;;;2.17;1.70;;;;;;;6.08;100.00;98205.44;5039630;28;20411;-79
2024/02/05 02:27:14;;;;;;;3.60;1.70;;;;;;;6.03;100.00;98213.09;5036830;28;20395;-80
2024/02/05 02:29:42;;;;;;;1.70;1.60;;;;;;;5.99;100.00;98214.50;5036412;28;20489;-80
2024/02/05 02:32:19;;;;;;;4.07;1.70;;;;;;;6.03;100.00;98213.91;5036480;28;20407;-80
2024/02/05 02:34:49;;;;;;;1.90;1.60;;;;;;;5.97;100.00;98209.47;5036469;28;20419;-80
2024/02/05 02:37:19;;;;;;;2.17;1.67;;;;;;;6.01;100.00;98209.88;5038811;28;20452;-80
2024/02/05 02:39:54;;;;;;;2.38;1.70;;;;;;;5.98;100.00;98195.31;5037935;28;20455;-79
2024/02/05 02:42:23;;;;;;;2.22;1.80;;;;;;;5.87;100.00;98187.16;5044331;28;20860;-79
2024/02/05 02:44:50;;;;;;;4.40;1.63;;;;;;;5.81;100.00;98192.22;5037922;28;20426;-79
2024/02/05 02:47:16;;;;;;;4.07;1.70;;;;;;;5.83;100.00;98190.22;5043568;28;20413;-79
2024/02/05 02:49:42;;;;;;;2.00;1.50;;;;;;;5.81;100.00;98205.38;5045860;28;20764;-80
2024/02/05 02:52:08;;;;;;;2.03;1.60;;;;;;;5.82;100.00;98201.72;5046740;28;20473;-79
2024/02/05 02:54:34;;;;;;;2.97;1.58;;;;;;;5.81;100.00;98194.84;5044967;28;20443;-79
2024/02/05 02:57:02;;;;;;;2.00;1.80;;;;;;;5.82;100.00;98204.34;5045590;28;20827;-80
2024/02/05 02:59:28;;;;;;;3.00;1.70;;;;;;;5.83;100.00;98205.97;5044111;28;20395;-79
2024/02/05 03:01:54;;;;;;;1.92;1.60;;;;;;;5.86;100.00;98194.28;5042136;28;20399;-79
2024/02/05 03:04:20;;;;;;;1.80;1.40;;;;;;;5.89;100.00;98200.94;5039948;28;20402;-79
2024/02/05 03:06:46;;;;;;;3.25;1.77;;;;;;;5.88;100.00;98207.22;5039894;28;20429;-79
2024/02/05 03:09:12;;;;;;;1.83;1.52;;;;;;;5.90;100.00;98221.78;5039229;28;20391;-79
2024/02/05 03:11:39;;;;;;;1.88;1.50;;;;;;;5.92;100.00;98204.00;5039547;28;20465;-79
2024/02/05 03:14:06;;;;;;;1.90;1.50;;;;;;;5.94;100.00;98209.06;5039481;28;20418;-79
2024/02/05 03:16:32;;;;;;;1.73;1.60;;;;;;;5.94;100.00;98212.47;5040290;28;20403;-79
2024/02/05 03:18:58;;;;;;;2.10;1.47;;;;;;;5.91;100.00;98212.88;5042763;28;20446;-79
2024/02/05 03:21:24;;;;;;;2.30;1.70;;;;;;;5.94;100.00;98201.19;5044133;28;20407;-79
2024/02/05 03:23:50;;;;;;;1.40;1.30;;;;;;;5.99;100.00;98196.13;5039830;28;20788;-77
2024/02/05 03:26:17;;;;;;;1.55;1.45;;;;;;;5.94;100.00;98193.28;5039007;28;20429;-79
2024/02/05 03:28:43;;;;;;;1.70;1.60;;;;;;;5.95;100.00;98206.22;5038545;28;20457;-79
2024/02/05 03:31:11;;;;;;;1.50;1.40;;;;;;;5.95;100.00;98200.97;5039636;28;20534;-79
2024/02/05 03:33:37;;;;;;;1.50;1.40;;;;;;;6.01;100.00;98202.00;5039538;28;20398;-79
2024/02/05 03:36:04;;;;;;;1.90;1.40;;;;;;;6.04;100.00;98204.19;5039560;28;20411;-79
2024/02/05 03:38:30;;;;;;;1.55;1.30;;;;;;;6.04;100.00;98209.47;5038703;28;20395;-79
2024/02/05 03:40:56;;;;;;;1.40;1.30;;;;;;;6.05;100.00;98211.88;5039554;28;20391;-79
2024/02/05 03:43:23;;;;;;;1.42;1.33;;;;;;;6.05;100.00;98208.44;5037896;28;20445;-79
2024/02/05 03:45:49;;;;;;;2.30;1.43;;;;;;;6.05;100.00;98208.44;5037783;28;20394;-80
2024/02/05 03:48:19;;;;;;;2.30;1.40;;;;;;;6.06;100.00;98216.13;5040011;28;20399;-80
2024/02/05 03:50:45;;;;;;;3.00;1.50;;;;;;;6.09;100.00;98228.84;5040449;28;20435;-79
2024/02/05 03:53:11;;;;;;;1.40;1.30;;;;;;;6.09;100.00;98220.97;5037660;28;20426;-78
2024/02/05 03:55:37;;;;;;;3.88;1.30;;;;;;;6.10;100.00;98216.53;5037165;28;20415;-78
2024/02/05 03:58:04;;;;;;;2.03;1.30;;;;;;;6.08;100.00;98227.28;5040185;28;20430;-78
2024/02/05 04:00:30;;;;;;;1.30;1.20;;;;;;;6.12;100.00;98214.50;5043952;28;20437;-78
2024/02/05 04:02:57;;;;;;;1.10;1.10;;;;;;;6.13;100.00;98216.94;5044898;28;20407;-78
2024/02/05 04:05:28;;;;;;;1.48;1.30;;;;;;;6.10;100.00;98216.53;5038239;28;20882;-78
2024/02/05 04:07:54;;;;;;;1.30;1.20;;;;;;;6.14;100.00;98228.28;5035900;28;20422;-78
2024/02/05 04:10:20;;;;;;;1.40;1.30;;;;;;;6.13;100.00;98218.75;5035156;28;20391;-78
2024/02/05 04:12:46;;;;;;;1.40;1.30;;;;;;;6.12;100.00;98220.59;5035300;28;20434;-78
2024/02/05 04:15:13;;;;;;;1.30;1.20;;;;;;;6.17;100.00;98222.59;5034636;28;20470;-78
2024/02/05 04:17:39;;;;;;;1.55;1.30;;;;;;;6.18;100.00;98237.34;5034884;28;20481;-78
2024/02/05 04:20:06;;;;;;;1.40;1.30;;;;;;;6.17;100.00;98231.28;5034589;28;20495;-78
2024/02/05 04:22:33;;;;;;;1.30;1.20;;;;;;;6.18;100.00;98222.41;5034661;28;20403;-78
2024/02/05 04:25:00;;;;;;;1.10;1.10;;;;;;;6.18;100.00;98230.28;5034772;28;20403;-78
2024/02/05 04:27:26;;;;;;;1.67;1.20;;;;;;;6.12;100.00;98225.03;5034802;28;20399;-78
2024/02/05 04:29:53;;;;;;;1.33;1.23;;;;;;;6.18;100.00;98232.09;5034854;28;20391;-78
2024/02/05 04:32:19;;;;;;;1.27;1.20;;;;;;;6.21;100.00;98236.97;5035101;28;20895;-78
2024/02/05 04:34:45;;;;;;;1.48;1.30;;;;;;;6.16;100.00;98218.38;5034828;28;20447;-78
2024/02/05 04:37:11;;;;;;;1.60;1.20;;;;;;;6.16;100.00;98232.28;5034337;28;20411;-79
2024/02/05 04:39:39;;;;;;;1.30;1.10;;;;;;;6.21;100.00;98229.09;5035030;28;20395;-78
2024/02/05 04:42:05;;;;;;;1.10;1.08;;;;;;;6.24;100.00;98235.75;5035112;28;20469;-78
2024/02/05 04:44:31;;;;;;;2.50;1.23;;;;;;;6.11;100.00;98221.59;5035159;28;20407;-78
2024/02/05 04:46:57;;;;;;;1.23;1.13;;;;;;;6.13;100.00;98219.56;5034911;28;20804;-78
2024/02/05 04:49:23;;;;;;;1.27;1.20;;;;;;;6.13;100.00;98218.75;5035546;28;20403;-78
2024/02/05 04:51:49;;;;;;;1.20;1.20;;;;;;;6.22;100.00;98223.63;5036730;28;20486;-80
2024/02/05 04:54:16;;;;;;;1.80;1.10;;;;;;;6.25;100.00;98232.09;5035338;28;20441;-78
2024/02/05 04:56:43;;;;;;;1.27;1.17;;;;;;;6.21;100.00;98232.53;5035268;28;20399;-78
2024/02/05 04:59:09;;;;;;;1.10;1.10;;;;;;;6.26;100.00;98226.66;5034035;28;20395;-80
2024/02/05 05:01:36;;;;;;;1.10;1.10;;;;;;;6.27;100.00;98230.91;5034179;28;20895;-78
2024/02/05 05:04:02;;;;;;;1.10;1.10;;;;;;;6.28;100.00;98229.88;5036085;28;20407;-79
2024/02/05 05:06:28;;;;;;;1.45;1.20;;;;;;;6.19;100.00;98231.91;5035209;28;20772;-79
2024/02/05 05:08:54;;;;;;;1.30;1.15;;;;;;;6.26;100.00;98238.97;5032276;28;20403;-76
2024/02/05 05:11:21;;;;;;;1.80;1.10;;;;;;;6.27;100.00;98246.66;5032723;28;20403;-77
2024/02/05 05:13:49;;;;;;;1.10;1.10;;;;;;;6.30;100.00;98248.09;5032147;28;20407;-77
2024/02/05 05:16:17;;;;;;;1.20;1.10;;;;;;;6.29;100.00;98243.84;5023885;28;20422;-77
2024/02/05 05:18:43;;;;;;;1.00;1.00;;;;;;;6.28;100.00;98245.66;5021000;28;20436;-77
2024/02/05 05:21:11;;;;;;;0.93;0.93;;;;;;;6.26;100.00;98247.69;5026695;28;20407;-77
2024/02/05 05:23:37;;;;;;;1.02;1.02;;;;;;;6.25;100.00;98245.25;5045064;28;20399;-77
2024/02/05 05:26:03;;;;;;;1.63;1.20;;;;;;;6.21;100.00;98252.75;5041523;28;20760;-78
2024/02/05 05:28:30;;;;;;;1.20;1.10;;;;;;;6.23;100.00;98250.72;5035246;28;20413;-79
2024/02/05 05:30:58;;;;;;;1.00;1.00;;;;;;;6.25;100.00;98251.31;5032969;28;20482;-79
2024/02/05 05:33:24;;;;;;;1.10;1.10;;;;;;;6.26;100.00;98262.63;5038787;28;20459;-79
2024/02/05 05:35:50;;;;;;;2.37;1.20;;;;;;;6.23;100.00;98263.88;5050177;28;20427;-80
2024/02/05 05:38:16;;;;;;;1.58;1.40;;;;;;;6.21;100.00;98258.00;5042333;28;20509;-77
2024/02/05 05:40:43;;;;;;;1.90;1.40;;;;;;;6.16;100.00;98258.59;5040320;28;20418;-80
2024/02/05 05:43:09;;;;;;;1.70;1.60;;;;;;;6.11;100.00;98257.56;5038732;28;20502;-80
2024/02/05 05:45:35;;;;;;;4.10;1.90;;;;;;;6.11;100.00;98249.69;5042605;28;20407;-78
2024/02/05 05:48:05;;;;;;;1.67;1.30;;;;;;;6.10;100.00;98256.75;5036380;28;20411;-78
2024/02/05 05:50:32;;;;;;;3.33;1.70;;;;;;;6.06;100.00;98246.88;5034471;28;20399;-78
2024/02/05 05:52:58;;;;;;;1.30;1.20;;;;;;;6.08;100.00;98247.47;5034688;28;20426;-79
2024/02/05 05:55:24;;;;;;;2.10;1.50;;;;;;;5.99;100.00;98244.22;5040789;28;20421;-78
2024/02/05 05:57:51;;;;;;;1.60;1.50;;;;;;;5.98;100.00;98239.97;5046371;28;20461;-78
2024/02/05 06:00:18;;;;;;;1.60;1.50;;;;;;;6.03;100.00;98244.63;5048378;28;20835;-80
2024/02/05 06:02:44;;;;;;;1.95;1.55;;;;;;;6.01;100.00;98241.41;5050954;28;20441;-80
2024/02/05 06:05:13;;;;;;;1.40;1.30;;;;;;;5.97;100.00;98238.38;5059982;28;20938;-80
2024/02/05 06:07:40;;;;;;;1.40;1.30;;;;;;;5.98;100.00;98236.53;5058526;28;20398;-80
2024/02/05 06:10:08;;;;;;;1.67;1.30;;;;;;;5.97;100.00;98242.81;5061975;28;20489;-80
2024/02/05 06:12:34;;;;;;;1.80;1.40;;;;;;;5.93;100.00;98239.78;5057487;28;20389;-81
2024/02/05 06:15:00;;;;;;;1.40;1.30;;;;;;;5.99;100.00;98236.34;5053689;28;20418;-80
2024/02/05 06:17:27;;;;;;;1.40;1.30;;;;;;;6.01;100.00;98234.34;5038816;28;20861;-79
2024/02/05 06:19:54;;;;;;;3.17;1.58;;;;;;;5.98;100.00;98233.91;5037969;28;20391;-80
2024/02/05 06:22:22;;;;;;;1.30;1.10;;;;;;;5.92;100.00;98232.09;5039666;28;20402;-80
2024/02/05 06:24:48;;;;;;;1.13;1.13;;;;;;;5.96;100.00;98228.03;5041513;28;20724;-81
2024/02/05 06:27:14;;;;;;;1.40;1.30;;;;;;;5.96;100.00;98222.78;5045170;28;20395;-81
2024/02/05 06:29:41;;;;;;;1.30;1.20;;;;;;;5.97;100.00;98230.47;5044933;28;20403;-79
2024/02/05 06:32:07;;;;;;;1.30;1.20;;;;;;;5.93;100.00;98228.47;5052171;28;20411;-78
2024/02/05 06:34:33;;;;;;;1.27;1.17;;;;;;;5.95;100.00;98234.31;5044384;28;20422;-80
2024/02/05 06:36:59;;;;;;;1.10;1.10;;;;;;;5.94;100.00;98235.34;5043435;28;20403;-81
2024/02/05 06:39:27;;;;;;;1.10;1.10;;;;;;;5.91;100.00;98238.34;5042941;28;20520;-79
2024/02/05 06:41:53;;;;;;;1.00;1.00;;;;;;;5.89;100.00;98233.28;5048915;28;20425;-81
2024/02/05 06:44:20;;;;;;;1.08;1.08;;;;;;;5.86;100.00;98235.50;5052768;28;20391;-78
2024/02/05 06:46:46;;;;;;;1.00;1.00;;;;;;;5.79;100.00;98232.84;5049400;28;20847;-78
2024/02/05 06:49:14;;;;;;;1.45;1.35;;;;;;;5.73;100.00;98234.44;5050661;28;20403;-80
2024/02/05 06:51:41;;;;;;;1.50;1.20;;;;;;;5.71;100.00;98233.81;5052428;28;20441;-82
2024/02/05 06:54:07;;;;;;;1.50;1.40;;;;;;;5.70;100.00;98244.56;5055020;28;20462;-79
2024/02/05 06:56:35;;;;;;;2.00;1.55;;;;;;;5.68;100.00;98242.13;5053451;28;20621;-79
2024/02/05 06:59:01;;;;;;;1.30;1.20;;;;;;;5.72;100.00;98248.59;5057435;28;20526;-83
2024/02/05 07:01:27;;;;;;;1.70;1.30;;;;;;;5.75;100.00;98247.38;5059156;28;20399;-83
2024/02/05 07:03:53;;;;;;;4.50;1.48;;;;;;;5.68;100.00;98242.13;5054397;28;20726;-83
2024/02/05 07:06:20;;;;;;;2.08;1.40;;;;;;;5.76;100.00;98249.00;5052691;28;20792;-84
2024/02/05 07:08:46;;;;;;;3.00;1.30;;;;;;;5.81;100.00;98247.41;5063059;28;20466;-83
2024/02/05 07:11:12;;;;;;;1.60;1.40;;;;;;;5.85;100.00;98245.19;5062915;28;20390;-83
2024/02/05 07:13:40;;;;;;;2.13;1.50;;;;;;;5.78;100.00;98244.38;5069750;28;20393;-82
2024/02/05 07:16:06;;;;;;;1.40;1.30;;;;;;;5.86;100.00;98246.81;5056257;28;20496;-83
2024/02/05 07:18:32;;;;;;;2.30;1.50;;;;;;;5.82;100.00;98245.59;5062722;28;20395;-83
2024/02/05 07:21:04;;;;;;;3.10;1.30;;;;;;;5.84;100.00;98246.19;5064718;28;20846;-83
2024/02/05 07:23:30;;;;;;;1.40;1.20;;;;;;;5.91;100.00;98243.63;5063908;28;20446;-83
2024/02/05 07:25:56;;;;;;;1.38;1.27;;;;;;;5.95;100.00;98252.69;5058382;28;20432;-84
2024/02/05 07:28:23;;;;;;;1.30;1.20;;;;;;;6.01;100.00;98254.56;5052203;28;20433;-82
2024/02/05 07:30:50;;;;;;;1.40;1.30;;;;;;;6.06;100.00;98258.19;5054088;28;20478;-84
2024/02/05 07:33:17;;;;;;;2.83;1.40;;;;;;;6.06;100.00;98265.25;5050947;28;20477;-81
2024/02/05 07:35:43;;;;;;;1.80;1.20;;;;;;;6.10;100.00;98263.84;5056380;28;20422;-81
2024/02/05 07:38:09;;;;;;;1.30;1.20;;;;;;;6.16;100.00;98257.81;5063284;28;20394;-81
2024/02/05 07:40:35;;;;;;;1.30;1.20;;;;;;;6.18;100.00;98261.81;5056683;28;20404;-82
2024/02/05 07:43:02;;;;;;;1.80;1.38;;;;;;;6.10;100.00;98264.66;5051314;28;20408;-83
2024/02/05 07:45:30;;;;;;;3.53;1.60;;;;;;;6.05;100.00;98258.38;5048540;28;20407;-82
2024/02/05 07:47:58;;;;;;;2.20;1.50;;;;;;;6.03;100.00;98255.94;5051674;28;20449;-83
2024/02/05 07:50:24;;;;;;;1.60;1.30;;;;;;;5.97;100.00;98259.38;5051373;28;20876;-83
2024/02/05 07:52:50;;;;;;;2.72;1.38;;;;;;;5.96;100.00;98252.50;5055077;28;20881;-83
2024/02/05 07:55:16;;;;;;;3.20;1.30;;;;;;;5.97;100.00;98266.47;5048745;28;20448;-84
2024/02/05 07:57:42;;;;;;;1.30;1.20;;;;;;;6.00;100.00;98256.38;5054790;28;20810;-84
2024/02/05 08:00:10;;;;;;;1.40;1.30;;;;;;;6.01;100.00;98265.06;5063592;28;20407;-80
2024/02/05 08:02:36;;;;;;;3.08;1.58;;;;;;;6.00;100.00;98255.56;5047877;28;20399;-78
2024/02/05 08:05:04;;;;;;;1.80;1.40;;;;;;;6.13;100.00;98255.56;5055005;28;20416;-82
2024/02/05 08:07:30;;;;;;;1.88;1.58;;;;;;;6.25;100.00;98263.66;5049979;28;20395;-80
2024/02/05 08:09:56;;;;;;;4.07;1.33;;;;;;;6.20;100.00;98251.94;5052196;28;20404;-82
2024/02/05 08:12:22;;;;;;;1.83;1.20;;;;;;;6.39;100.00;98255.56;5044940;28;20422;-82
2024/02/05 08:14:48;;;;;;;1.40;1.30;;;;;;;6.46;100.00;98263.47;5048239;28;20430;-80
2024/02/05 08:17:14;;;;;;;5.10;1.70;;;;;;;6.45;100.00;98241.63;5045220;28;20482;-81
2024/02/05 08:19:41;;;;;;;2.70;1.30;;;;;;;6.52;100.00;98245.06;5049510;28;20399;-81
2024/02/05 08:22:09;;;;;;;1.40;1.30;;;;;;;6.59;100.00;98243.22;5046780;28;20427;-81
2024/02/05 08:24:35;;;;;;;2.28;1.48;;;;;;;6.64;100.00;98244.41;5049327;28;20389;-81
2024/02/05 08:27:01;;;;;;;4.90;1.70;;;;;;;6.57;100.00;98239.16;5050208;28;20397;-81
2024/02/05 08:29:27;;;;;;;2.90;1.60;;;;;;;6.52;100.00;98246.88;5043797;28;20497;-81
2024/02/05 08:31:54;;;;;;;2.80;1.70;;;;;;;6.50;100.00;98235.75;5044844;28;20407;-80
2024/02/05 08:34:20;;;;;;;2.22;1.65;;;;;;;6.40;100.00;98243.22;5042391;28;20407;-81
2024/02/05 08:36:46;;;;;;;5.60;1.40;;;;;;;6.36;100.00;98237.56;5049358;28;20393;-81
2024/02/05 08:39:14;;;;;;;2.00;1.52;;;;;;;6.37;100.00;98239.19;5045374;28;20409;-82
2024/02/05 08:41:40;;;;;;;3.50;1.60;;;;;;;6.41;100.00;98243.03;5045548;28;20430;-83
2024/02/05 08:44:07;;;;;;;2.03;1.60;;;;;;;6.42;100.00;98235.94;5041463;28;20399;-82
2024/02/05 08:46:33;;;;;;;4.40;1.70;;;;;;;6.44;100.00;98233.94;5042948;28;20947;-81
2024/02/05 08:48:59;;;;;;;1.87;1.27;;;;;;;6.60;100.00;98238.78;5050727;28;20409;-82
2024/02/05 08:51:30;;;;;;;2.08;1.38;;;;;;;6.80;100.00;98246.63;5048712;28;20409;-82
2024/02/05 08:53:56;;;;;;;4.15;1.55;;;;;;;6.90;100.00;98241.75;5047193;28;20409;-82
2024/02/05 08:56:24;;;;;;;3.45;1.40;;;;;;;6.97;100.00;98243.34;5054260;28;20426;-80
2024/02/05 08:58:50;;;;;;;1.80;1.30;;;;;;;6.93;100.00;98238.69;5046202;28;20498;-82
2024/02/05 09:01:16;;;;;;;4.20;1.40;;;;;;;6.90;100.00;98236.47;5050116;28;20463;-82
2024/02/05 09:03:42;;;;;;;3.28;1.42;;;;;;;6.96;100.00;98236.47;5047370;28;20393;-81
2024/02/05 09:06:09;;;;;;;2.83;1.50;;;;;;;7.31;100.00;98234.31;5041854;28;20399;-82
2024/02/05 09:08:36;;;;;;;2.55;1.45;;;;;;;7.60;100.00;98235.59;5048486;28;20397;-81
2024/02/05 09:11:02;;;;;;;4.07;1.65;;;;;;;7.94;100.00;98231.75;5041485;28;20398;-82
2024/02/05 09:13:30;;;;;;;4.45;1.60;;;;;;;8.28;100.00;98225.19;5042222;28;20403;-80
2024/02/05 09:15:56;;;;;;;2.80;1.55;;;;;;;8.63;100.00;98230.81;5045309;28;20776;-80
2024/02/05 09:18:24;;;;;;;1.63;1.35;;;;;;;8.89;100.00;98227.91;5042827;28;20411;-80
2024/02/05 09:20:50;;;;;;;2.20;1.40;;;;;;;9.07;100.00;98226.28;5050076;28;20461;-79
2024/02/05 09:23:18;;;;;;;1.88;1.27;;;;;;;9.33;100.00;98221.50;5039521;28;20426;-80
2024/02/05 09:25:44;;;;;;;3.97;1.20;;;;;;;9.68;100.00;98223.50;5051879;28;20872;-81
2024/02/05 09:28:10;;;;;;;2.13;1.20;;;;;;;10.20;100.00;98219.28;5040898;28;20402;-80
2024/02/05 09:30:38;;;;;;;3.05;1.42;;;;;;;10.63;100.00;98211.03;5039028;28;20494;-81
2024/02/05 09:33:05;;;;;;;2.55;1.38;;;;;;;10.98;100.00;98210.16;5045087;28;20397;-83
2024/02/05 09:35:31;;;;;;;2.58;1.17;;;;;;;11.29;100.00;98207.09;5060239;28;20471;-79
2024/02/05 09:37:57;;;;;;;2.22;1.33;;;;;;;11.73;100.00;98210.84;5055291;28;20485;-78
2024/02/05 09:40:25;;;;;;;2.70;1.38;;;;;;;11.99;100.00;98204.19;5054151;28;20468;-81
2024/02/05 09:42:52;;;;;;;2.60;1.30;;;;;;;12.13;100.00;98204.69;5056420;28;20405;-80
2024/02/05 09:45:19;;;;;;;4.65;1.42;;;;;;;12.31;100.00;98207.91;5056667;28;20432;-81
2024/02/05 09:47:47;;;;;;;3.25;1.40;;;;;;;12.19;100.00;98212.47;5044608;28;20493;-79
2024/02/05 09:50:15;;;;;;;5.35;1.35;;;;;;;12.42;100.00;98208.84;5046829;28;20393;-80
2024/02/05 09:52:44;;;;;;;2.97;1.10;;;;;;;12.93;100.00;98210.38;5056355;28;20429;-79
2024/02/05 09:55:11;;;;;;;9.93;1.30;;;;;;;13.40;100.00;98210.72;5056557;28;20444;-78
2024/02/05 09:57:39;;;;;;;2.63;1.20;;;;;;;13.53;100.00;98210.34;5064012;28;20451;-78
2024/02/05 10:00:06;;;;;;;2.05;0.98;;;;;;;13.97;100.00;98201.47;5061233;28;20427;-79
2024/02/05 10:02:34;;;;;;;3.10;1.10;;;;;;;14.14;100.00;98202.94;5066180;28;20416;-77
2024/02/05 10:05:03;;;;;;;3.03;1.30;;;;;;;14.11;100.00;98206.13;5064498;28;20462;-79
2024/02/05 10:07:32;;;;;;;2.70;1.13;;;;;;;14.33;100.00;98211.38;5063105;28;20405;-79
2024/02/05 10:10:02;;;;;;;1.17;0.80;;;;;;;14.75;100.00;98207.94;5064505;28;20419;-78
2024/02/05 10:12:30;;;;;;;4.47;1.20;;;;;;;14.73;100.00;98213.56;5064820;28;20397;-77
2024/02/05 10:14:57;;;;;;;6.05;1.20;;;;;;;14.39;100.00;98209.56;5065658;28;20551;-80
2024/02/05 10:17:26;;;;;;;2.13;1.15;;;;;;;14.31;100.00;98210.81;5062255;28;20393;-80
2024/02/05 10:19:52;;;;;;;2.40;1.08;;;;;;;14.24;100.00;98200.38;5061321;28;20393;-80
2024/02/05 10:22:19;;;;;;;1.30;0.90;;;;;;;14.54;100.00;98204.34;5063953;28;20406;-78
2024/02/05 10:24:45;;;;;;;1.48;0.70;;;;;;;14.92;100.00;98203.25;5062601;28;20409;-80
2024/02/05 10:27:16;;;;;;;3.65;1.30;;;;;;;14.83;100.00;98192.28;5062115;28;20404;-80
2024/02/05 10:29:42;;;;;;;2.10;1.00;;;;;;;14.99;100.00;98195.81;5062972;28;20455;-80
2024/02/05 10:32:08;;;;;;;2.65;1.05;;;;;;;15.07;100.00;98182.81;5062555;28;20394;-80
2024/02/05 10:34:34;;;;;;;3.63;1.10;;;;;;;15.33;100.00;98191.72;5062675;28;20406;-79
2024/02/05 10:37:07;;;;;;;4.72;1.23;;;;;;;15.77;100.00;98177.97;5063023;28;20401;-79
2024/02/05 10:39:35;;;;;;;5.70;1.33;;;;;;;15.61;100.00;98179.81;5063444;28;20416;-79
2024/02/05 10:42:03;;;;;;;3.88;1.50;;;;;;;15.84;100.00;98178.53;5062024;28;20435;-79
2024/02/05 10:44:30;;;;;;;1.70;0.90;;;;;;;16.00;100.00;98185.50;5062448;28;20401;-79
2024/02/05 10:46:56;;;;;;;2.63;1.10;;;;;;;16.20;100.00;98174.00;5061185;28;20389;-80
2024/02/05 10:49:22;;;;;;;2.38;1.05;;;;;;;16.41;100.00;98164.09;5042802;28;20414;-80
2024/02/05 10:51:48;;;;;;;4.45;1.20;;;;;;;16.33;100.00;98165.44;5040815;28;20429;-80
2024/02/05 10:54:15;;;;;;;5.55;1.42;;;;;;;16.63;100.00;98154.72;5041892;28;20541;-81
2024/02/05 10:56:43;;;;;;;2.85;1.13;;;;;;;16.99;100.00;98146.59;5040957;28;20900;-81
2024/02/05 10:59:10;;;;;;;3.10;1.30;;;;;;;17.50;100.00;98149.84;5040980;28;20422;-80
2024/02/05 11:01:42;;;;;;;2.20;0.77;;;;;;;17.97;100.00;98138.53;5053425;28;20398;-81
2024/02/05 11:04:10;;;;;;;3.20;1.05;;;;;;;18.05;100.00;98148.66;5039396;28;20418;-80
2024/02/05 11:06:42;;;;;;;2.80;0.95;;;;;;;17.90;100.00;98145.28;5039454;28;20454;-79
2024/02/05 11:09:12;;;;;;;1.73;1.08;;;;;;;17.70;100.00;98133.66;5040120;28;20475;-80
2024/02/05 11:11:41;;;;;;;4.30;1.17;;;;;;;17.27;100.00;98135.25;5038662;28;20889;-81
2024/02/05 11:14:11;;;;;;;3.58;1.27;;;;;;;17.12;100.00;98121.13;5038401;28;20395;-80
2024/02/05 11:16:41;;;;;;;4.85;1.17;;;;;;;17.17;100.00;98121.91;5039027;28;20441;-79
2024/02/05 11:19:11;;;;;;;1.60;1.00;;;;;;;17.28;100.00;98123.47;5038265;28;20457;-79
2024/02/05 11:21:44;;;;;;;2.00;1.00;;;;;;;17.07;100.00;98121.13;5037885;28;20403;-78
2024/02/05 11:24:13;;;;;;;6.07;1.33;;;;;;;16.81;100.00;98115.91;5035953;28;20841;-78
2024/02/05 11:26:40;;;;;;;4.35;1.38;;;;;;;16.73;100.00;98108.47;5036086;28;20419;-78
2024/02/05 11:29:07;;;;;;;7.45;1.30;;;;;;;16.63;100.00;98105.81;5036374;28;20457;-79